sensor_id;sensor_type;location;lat;lon;timestamp;pressure;altitude;pressure_sealevel;temperature;humidity
46534;BME280;32260;52.008;4.752;2024-02-04T00:00:48;102472.28;;;12.28;77.34
46534;BME280;32260;52.008;4.752;2024-02-04T00:03:14;102477.59;;;12.35;77.32
46534;BME280;32260;52.008;4.752;2024-02-04T00:05:44;102486.47;;;12.12;78.21
46534;BME280;32260;52.008;4.752;2024-02-04T00:08:10;102486.47;;;12.30;77.82
46534;BME280;32260;52.008;4.752;2024-02-04T00:10:37;102470.53;;;12.34;77.50
46534;BME280;32260;52.008;4.752;2024-02-04T00:13:03;102472.28;;;12.33;77.66
46534;BME280;32260;52.008;4.752;2024-02-04T00:15:29;102470.50;;;12.43;77.02
46534;BME280;32260;52.008;4.752;2024-02-04T00:17:55;102468.72;;;12.48;76.74
46534;BME280;32260;52.008;4.752;2024-02-04T00:20:21;102463.41;;;12.57;76.70
46534;BME280;32260;52.008;4.752;2024-02-04T00:22:50;102468.72;;;12.48;76.45
46534;BME280;32260;52.008;4.752;2024-02-04T00:25:16;102470.47;;;12.58;76.14
46534;BME280;32260;52.008;4.752;2024-02-04T00:27:45;102468.72;;;12.50;76.92
46534;BME280;32260;52.008;4.752;2024-02-04T00:30:11;102468.69;;;12.56;76.43
46534;BME280;32260;52.008;4.752;2024-02-04T00:32:40;102456.31;;;12.56;76.61
46534;BME280;32260;52.008;4.752;2024-02-04T00:35:06;102461.63;;;12.53;77.08
46534;BME280;32260;52.008;4.752;2024-02-04T00:37:33;102466.94;;;12.59;77.19
46534;BME280;32260;52.008;4.752;2024-02-04T00:39:59;102460.75;;;12.57;77.36
46534;BME280;32260;52.008;4.752;2024-02-04T00:42:25;102468.69;;;12.60;76.81
46534;BME280;32260;52.008;4.752;2024-02-04T00:44:52;102471.34;;;12.71;77.10
46534;BME280;32260;52.008;4.752;2024-02-04T00:47:18;102471.31;;;12.77;76.93
46534;BME280;32260;52.008;4.752;2024-02-04T00:49:44;102465.09;;;12.80;76.08
46534;BME280;32260;52.008;4.752;2024-02-04T00:52:10;102454.47;;;12.80;76.23
46534;BME280;32260;52.008;4.752;2024-02-04T00:54:36;102449.09;;;12.89;76.22
46534;BME280;32260;52.008;4.752;2024-02-04T00:57:05;102442.91;;;12.87;75.98
46534;BME280;32260;52.008;4.752;2024-02-04T00:59:31;102454.44;;;12.83;75.87
46534;BME280;32260;52.008;4.752;2024-02-04T01:01:57;102433.16;;;12.92;75.83
46534;BME280;32260;52.008;4.752;2024-02-04T01:04:27;102434.91;;;12.90;75.68
46534;BME280;32260;52.008;4.752;2024-02-04T01:06:53;102434.94;;;12.84;75.42
46534;BME280;32260;52.008;4.752;2024-02-04T01:09:20;102425.19;;;12.85;76.09
46534;BME280;32260;52.008;4.752;2024-02-04T01:11:46;102427.84;;;12.83;76.03
46534;BME280;32260;52.008;4.752;2024-02-04T01:14:12;102422.50;;;12.92;75.77
46534;BME280;32260;52.008;4.752;2024-02-04T01:16:39;102424.25;;;13.00;75.07
46534;BME280;32260;52.008;4.752;2024-02-04T01:19:05;102424.22;;;13.03;75.09
46534;BME280;32260;52.008;4.752;2024-02-04T01:21:31;102429.56;;;13.00;75.06
46534;BME280;32260;52.008;4.752;2024-02-04T01:23:57;102437.56;;;12.95;75.02
46534;BME280;32260;52.008;4.752;2024-02-04T01:26:23;102429.59;;;12.93;75.01
46534;BME280;32260;52.008;4.752;2024-02-04T01:28:50;102427.84;;;12.86;75.31
46534;BME280;32260;52.008;4.752;2024-02-04T01:31:16;102438.50;;;12.77;75.16
46534;BME280;32260;52.008;4.752;2024-02-04T01:33:42;102438.56;;;12.68;75.36
46534;BME280;32260;52.008;4.752;2024-02-04T01:36:09;102445.66;;;12.62;75.60
46534;BME280;32260;52.008;4.752;2024-02-04T01:38:37;102448.28;;;12.66;75.63
46534;BME280;32260;52.008;4.752;2024-02-04T01:41:04;102443.88;;;12.65;75.16
46534;BME280;32260;52.008;4.752;2024-02-04T01:43:30;102453.63;;;12.62;75.54
46534;BME280;32260;52.008;4.752;2024-02-04T01:45:57;102454.50;;;12.58;75.62
46534;BME280;32260;52.008;4.752;2024-02-04T01:48:23;102457.19;;;12.52;76.27
46534;BME280;32260;52.008;4.752;2024-02-04T01:50:52;102460.72;;;12.56;75.55
46534;BME280;32260;52.008;4.752;2024-02-04T01:53:22;102464.25;;;12.66;75.66
46534;BME280;32260;52.008;4.752;2024-02-04T01:55:49;102455.41;;;12.70;75.41
46534;BME280;32260;52.008;4.752;2024-02-04T01:58:16;102460.72;;;12.64;75.11
46534;BME280;32260;52.008;4.752;2024-02-04T02:00:45;102461.63;;;12.62;75.45
46534;BME280;32260;52.008;4.752;2024-02-04T02:03:13;102466.06;;;12.64;75.34
46534;BME280;32260;52.008;4.752;2024-02-04T02:05:40;102459.84;;;12.61;75.70
46534;BME280;32260;52.008;4.752;2024-02-04T02:08:07;102463.38;;;12.60;75.15
46534;BME280;32260;52.008;4.752;2024-02-04T02:10:34;102457.19;;;12.58;75.53
46534;BME280;32260;52.008;4.752;2024-02-04T02:13:07;102459.84;;;12.61;74.86
46534;BME280;32260;52.008;4.752;2024-02-04T02:15:43;102462.50;;;12.61;75.21
46534;BME280;32260;52.008;4.752;2024-02-04T02:18:21;102460.72;;;12.64;74.71
46534;BME280;32260;52.008;4.752;2024-02-04T02:23:35;102454.56;;;12.48;74.75
46534;BME280;32260;52.008;4.752;2024-02-04T02:26:03;102458.97;;;12.56;73.94
46534;BME280;32260;52.008;4.752;2024-02-04T02:28:30;102459.84;;;12.61;74.15
46534;BME280;32260;52.008;4.752;2024-02-04T02:30:56;102456.31;;;12.58;74.04
46534;BME280;32260;52.008;4.752;2024-02-04T02:33:22;102443.91;;;12.55;74.00
46534;BME280;32260;52.008;4.752;2024-02-04T02:35:53;102456.31;;;12.52;74.24
46534;BME280;32260;52.008;4.752;2024-02-04T02:41:15;102443.94;;;12.48;74.51
46534;BME280;32260;52.008;4.752;2024-02-04T02:43:43;102443.94;;;12.37;73.73
46534;BME280;32260;52.008;4.752;2024-02-04T02:46:10;102459.88;;;12.38;74.20
46534;BME280;32260;52.008;4.752;2024-02-04T02:48:37;102466.09;;;12.29;74.26
46534;BME280;32260;52.008;4.752;2024-02-04T02:51:04;102451.91;;;12.32;73.89
46534;BME280;32260;52.008;4.752;2024-02-04T02:53:30;102444.84;;;12.23;73.51
46534;BME280;32260;52.008;4.752;2024-02-04T02:55:57;102433.34;;;12.23;73.35
46534;BME280;32260;52.008;4.752;2024-02-04T02:58:26;102451.91;;;12.26;73.49
46534;BME280;32260;52.008;4.752;2024-02-04T03:00:57;102449.28;;;12.15;73.82
46534;BME280;32260;52.008;4.752;2024-02-04T03:03:23;102450.19;;;12.02;73.51
46534;BME280;32260;52.008;4.752;2024-02-04T03:05:52;102445.75;;;12.13;73.65
46534;BME280;32260;52.008;4.752;2024-02-04T03:08:18;102432.44;;;12.19;73.54
46534;BME280;32260;52.008;4.752;2024-02-04T03:10:44;102432.44;;;12.19;73.73
46534;BME280;32260;52.008;4.752;2024-02-04T03:13:11;102431.56;;;12.17;73.15
46534;BME280;32260;52.008;4.752;2024-02-04T03:15:37;102429.78;;;12.16;73.78
46534;BME280;32260;52.008;4.752;2024-02-04T03:18:03;102429.78;;;12.22;74.01
46534;BME280;32260;52.008;4.752;2024-02-04T03:20:29;102429.78;;;12.19;73.63
46534;BME280;32260;52.008;4.752;2024-02-04T03:22:56;102431.56;;;12.16;74.23
46534;BME280;32260;52.008;4.752;2024-02-04T03:25:22;102437.75;;;12.16;73.98
46534;BME280;32260;52.008;4.752;2024-02-04T03:27:55;102423.59;;;12.20;74.19
46534;BME280;32260;52.008;4.752;2024-02-04T03:30:21;102420.03;;;12.20;73.95
46534;BME280;32260;52.008;4.752;2024-02-04T03:32:47;102404.09;;;12.24;74.07
46534;BME280;32260;52.008;4.752;2024-02-04T03:35:19;102423.59;;;12.14;74.58
46534;BME280;32260;52.008;4.752;2024-02-04T03:37:45;102417.41;;;12.15;74.83
46534;BME280;32260;52.008;4.752;2024-02-04T03:40:11;102428.03;;;12.21;74.21
46534;BME280;32260;52.008;4.752;2024-02-04T03:42:38;102425.34;;;12.13;75.03
46534;BME280;32260;52.008;4.752;2024-02-04T03:45:06;102425.38;;;12.15;75.28
46534;BME280;32260;52.008;4.752;2024-02-04T03:47:33;102432.44;;;12.14;74.80
46534;BME280;32260;52.008;4.752;2024-02-04T03:49:59;102438.66;;;12.15;74.87
46534;BME280;32260;52.008;4.752;2024-02-04T03:52:25;102443.97;;;12.18;75.01
46534;BME280;32260;52.008;4.752;2024-02-04T03:54:54;102438.66;;;12.13;75.46
46534;BME280;32260;52.008;4.752;2024-02-04T03:57:20;102444.84;;;12.16;75.48
46534;BME280;32260;52.008;4.752;2024-02-04T03:59:46;102445.75;;;12.07;75.61
46534;BME280;32260;52.008;4.752;2024-02-04T04:02:13;102438.66;;;12.06;75.48
46534;BME280;32260;52.008;4.752;2024-02-04T04:04:41;102448.38;;;11.94;75.81
46534;BME280;32260;52.008;4.752;2024-02-04T04:07:09;102440.41;;;11.91;76.53
46534;BME280;32260;52.008;4.752;2024-02-04T04:09:35;102426.25;;;11.97;75.78
46534;BME280;32260;52.008;4.752;2024-02-04T04:12:01;102422.72;;;11.90;76.79
46534;BME280;32260;52.008;4.752;2024-02-04T04:14:27;102424.47;;;11.88;76.52
46534;BME280;32260;52.008;4.752;2024-02-04T04:16:53;102405.00;;;11.85;76.60
46534;BME280;32260;52.008;4.752;2024-02-04T04:19:19;102397.91;;;11.91;76.04
46534;BME280;32260;52.008;4.752;2024-02-04T04:21:46;102385.53;;;11.84;76.87
46534;BME280;32260;52.008;4.752;2024-02-04T04:24:12;102401.44;;;11.95;75.95
46534;BME280;32260;52.008;4.752;2024-02-04T04:26:38;102398.78;;;11.92;76.63
46534;BME280;32260;52.008;4.752;2024-02-04T04:29:04;102393.50;;;11.89;77.09
46534;BME280;32260;52.008;4.752;2024-02-04T04:31:30;102391.72;;;11.89;76.43
46534;BME280;32260;52.008;4.752;2024-02-04T04:33:57;102391.72;;;11.98;76.25
46534;BME280;32260;52.008;4.752;2024-02-04T04:36:23;102397.00;;;11.92;76.21
46534;BME280;32260;52.008;4.752;2024-02-04T04:38:49;102388.16;;;11.95;75.98
46534;BME280;32260;52.008;4.752;2024-02-04T04:41:19;102385.50;;;11.92;76.74
46534;BME280;32260;52.008;4.752;2024-02-04T04:43:45;102395.25;;;11.85;76.81
46534;BME280;32260;52.008;4.752;2024-02-04T04:46:11;102399.69;;;11.83;76.75
46534;BME280;32260;52.008;4.752;2024-02-04T04:48:37;102386.41;;;11.83;77.24
46534;BME280;32260;52.008;4.752;2024-02-04T04:51:04;102390.81;;;11.81;77.05
46534;BME280;32260;52.008;4.752;2024-02-04T04:53:30;102381.09;;;11.83;76.49
46534;BME280;32260;52.008;4.752;2024-02-04T04:55:56;102395.25;;;11.82;77.06
46534;BME280;32260;52.008;4.752;2024-02-04T04:58:22;102392.59;;;11.76;76.97
46534;BME280;32260;52.008;4.752;2024-02-04T05:00:48;102383.75;;;11.77;77.31
46534;BME280;32260;52.008;4.752;2024-02-04T05:03:15;102364.28;;;11.78;77.63
46534;BME280;32260;52.008;4.752;2024-02-04T05:05:41;102359.84;;;11.83;76.69
46534;BME280;32260;52.008;4.752;2024-02-04T05:08:07;102366.94;;;11.70;77.18
46534;BME280;32260;52.008;4.752;2024-02-04T05:10:33;102380.22;;;11.65;78.34
46534;BME280;32260;52.008;4.752;2024-02-04T05:12:59;102381.97;;;11.70;78.10
46534;BME280;32260;52.008;4.752;2024-02-04T05:15:25;102373.13;;;11.83;77.62
46534;BME280;32260;52.008;4.752;2024-02-04T05:17:52;102370.47;;;11.83;77.18
46534;BME280;32260;52.008;4.752;2024-02-04T05:20:18;102374.88;;;11.93;77.26
46534;BME280;32260;52.008;4.752;2024-02-04T05:22:44;102382.88;;;12.00;77.01
46534;BME280;32260;52.008;4.752;2024-02-04T05:25:10;102369.59;;;11.96;76.49
46534;BME280;32260;52.008;4.752;2024-02-04T05:27:36;102359.00;;;11.96;77.04
46534;BME280;32260;52.008;4.752;2024-02-04T05:30:03;102353.69;;;11.96;76.58
46534;BME280;32260;52.008;4.752;2024-02-04T05:32:30;102350.97;;;11.92;76.69
46534;BME280;32260;52.008;4.752;2024-02-04T05:34:56;102360.75;;;11.97;77.19
46534;BME280;32260;52.008;4.752;2024-02-04T05:37:23;102370.47;;;11.94;77.17
46534;BME280;32260;52.008;4.752;2024-02-04T05:39:49;102362.47;;;11.92;77.02
46534;BME280;32260;52.008;4.752;2024-02-04T05:42:15;102358.97;;;12.00;76.74
46534;BME280;32260;52.008;4.752;2024-02-04T05:44:41;102365.16;;;11.97;77.23
46534;BME280;32260;52.008;4.752;2024-02-04T05:47:08;102364.28;;;11.84;76.96
46534;BME280;32260;52.008;4.752;2024-02-04T05:49:34;102350.13;;;12.01;76.81
46534;BME280;32260;52.008;4.752;2024-02-04T05:52:00;102354.53;;;12.02;76.62
46534;BME280;32260;52.008;4.752;2024-02-04T05:54:26;102343.00;;;11.95;76.58
46534;BME280;32260;52.008;4.752;2024-02-04T05:56:53;102351.00;;;11.90;76.41
46534;BME280;32260;52.008;4.752;2024-02-04T05:59:19;102367.81;;;11.83;76.53
46534;BME280;32260;52.008;4.752;2024-02-04T06:01:48;102347.44;;;11.93;76.52
46534;BME280;32260;52.008;4.752;2024-02-04T06:04:14;102349.19;;;11.86;76.28
46534;BME280;32260;52.008;4.752;2024-02-04T06:06:40;102344.78;;;11.90;77.03
46534;BME280;32260;52.008;4.752;2024-02-04T06:09:06;102336.84;;;11.87;76.69
46534;BME280;32260;52.008;4.752;2024-02-04T06:11:34;102340.38;;;11.84;76.28
46534;BME280;32260;52.008;4.752;2024-02-04T06:14:00;102339.47;;;11.88;76.98
46534;BME280;32260;52.008;4.752;2024-02-04T06:16:26;102319.97;;;11.92;77.02
46534;BME280;32260;52.008;4.752;2024-02-04T06:18:53;102327.94;;;11.92;76.43
46534;BME280;32260;52.008;4.752;2024-02-04T06:21:23;102341.25;;;11.83;76.19
46534;BME280;32260;52.008;4.752;2024-02-04T06:23:49;102326.22;;;11.79;77.49
46534;BME280;32260;52.008;4.752;2024-02-04T06:26:15;102330.66;;;11.81;76.44
46534;BME280;32260;52.008;4.752;2024-02-04T06:28:42;102328.88;;;11.85;76.87
46534;BME280;32260;52.008;4.752;2024-02-04T06:31:12;102331.53;;;11.91;76.33
46534;BME280;32260;52.008;4.752;2024-02-04T06:33:42;102325.31;;;11.86;77.34
46534;BME280;32260;52.008;4.752;2024-02-04T06:36:09;102334.19;;;11.97;77.04
46534;BME280;32260;52.008;4.752;2024-02-04T06:38:36;102332.44;;;11.96;76.34
46534;BME280;32260;52.008;4.752;2024-02-04T06:41:02;102327.06;;;12.06;76.63
46534;BME280;32260;52.008;4.752;2024-02-04T06:43:29;102320.84;;;12.10;76.50
46534;BME280;32260;52.008;4.752;2024-02-04T06:45:58;102332.41;;;12.03;76.22
46534;BME280;32260;52.008;4.752;2024-02-04T06:48:24;102325.28;;;12.14;76.67
46534;BME280;32260;52.008;4.752;2024-02-04T06:50:50;102334.16;;;12.07;76.47
46534;BME280;32260;52.008;4.752;2024-02-04T06:53:16;102319.97;;;12.17;76.38
46534;BME280;32260;52.008;4.752;2024-02-04T06:55:45;102319.94;;;12.23;76.28
46534;BME280;32260;52.008;4.752;2024-02-04T06:58:11;102325.28;;;12.14;76.13
46534;BME280;32260;52.008;4.752;2024-02-04T07:00:38;102331.50;;;12.18;76.22
46534;BME280;32260;52.008;4.752;2024-02-04T07:03:04;102330.59;;;12.17;76.36
46534;BME280;32260;52.008;4.752;2024-02-04T07:05:30;102333.25;;;12.17;76.26
46534;BME280;32260;52.008;4.752;2024-02-04T07:07:59;102316.44;;;12.12;76.43
46534;BME280;32260;52.008;4.752;2024-02-04T07:10:28;102315.53;;;12.19;75.66
46534;BME280;32260;52.008;4.752;2024-02-04T07:12:55;102323.50;;;12.19;75.42
46534;BME280;32260;52.008;4.752;2024-02-04T07:15:21;102311.09;;;12.24;75.54
46534;BME280;32260;52.008;4.752;2024-02-04T07:17:47;102326.13;;;12.22;75.60
46534;BME280;32260;52.008;4.752;2024-02-04T07:20:13;102320.88;;;12.02;76.12
46534;BME280;32260;52.008;4.752;2024-02-04T07:22:40;102320.88;;;12.11;75.38
46534;BME280;32260;52.008;4.752;2024-02-04T07:25:06;102308.47;;;12.12;76.11
46534;BME280;32260;52.008;4.752;2024-02-04T07:27:33;102296.94;;;12.10;75.85
46534;BME280;32260;52.008;4.752;2024-02-04T07:29:59;102304.91;;;12.21;75.22
46534;BME280;32260;52.008;4.752;2024-02-04T07:32:26;102299.59;;;12.16;75.28
46534;BME280;32260;52.008;4.752;2024-02-04T07:34:52;102301.38;;;12.11;75.99
46534;BME280;32260;52.008;4.752;2024-02-04T07:37:18;102304.06;;;12.05;76.37
46534;BME280;32260;52.008;4.752;2024-02-04T07:39:44;102311.16;;;12.09;76.46
46534;BME280;32260;52.008;4.752;2024-02-04T07:42:13;102304.03;;;12.11;76.50
46534;BME280;32260;52.008;4.752;2024-02-04T07:44:39;102318.22;;;11.94;77.17
46534;BME280;32260;52.008;4.752;2024-02-04T07:47:06;102307.59;;;12.13;77.05
46534;BME280;32260;52.008;4.752;2024-02-04T07:49:32;102308.47;;;12.10;77.15
46534;BME280;32260;52.008;4.752;2024-02-04T07:52:01;102310.22;;;12.10;76.76
46534;BME280;32260;52.008;4.752;2024-02-04T07:54:27;102324.41;;;12.12;76.69
46534;BME280;32260;52.008;4.752;2024-02-04T07:56:54;102311.16;;;12.03;77.69
46534;BME280;32260;52.008;4.752;2024-02-04T07:59:20;102304.94;;;12.13;77.10
46534;BME280;32260;52.008;4.752;2024-02-04T08:01:46;102315.53;;;12.19;77.02
46534;BME280;32260;52.008;4.752;2024-02-04T08:04:12;102303.13;;;12.13;77.19
46534;BME280;32260;52.008;4.752;2024-02-04T08:06:41;102300.47;;;12.18;77.44
46534;BME280;32260;52.008;4.752;2024-02-04T08:09:08;102298.69;;;12.23;76.69
46534;BME280;32260;52.008;4.752;2024-02-04T08:11:34;102300.50;;;12.15;77.34
46534;BME280;32260;52.008;4.752;2024-02-04T08:14:00;102304.03;;;12.20;76.54
46534;BME280;32260;52.008;4.752;2024-02-04T08:16:26;102305.84;;;12.09;77.05
46534;BME280;32260;52.008;4.752;2024-02-04T08:18:53;102315.53;;;12.21;76.73
46534;BME280;32260;52.008;4.752;2024-02-04T08:21:19;102299.56;;;12.27;76.29
46534;BME280;32260;52.008;4.752;2024-02-04T08:23:45;102303.13;;;12.23;76.71
46534;BME280;32260;52.008;4.752;2024-02-04T08:26:11;102307.53;;;12.28;76.94
46534;BME280;32260;52.008;4.752;2024-02-04T08:28:37;102309.28;;;12.33;75.80
46534;BME280;32260;52.008;4.752;2024-02-04T08:31:04;102314.63;;;12.22;76.65
46534;BME280;32260;52.008;4.752;2024-02-04T08:33:30;102298.66;;;12.29;76.16
46534;BME280;32260;52.008;4.752;2024-02-04T08:35:56;102307.50;;;12.35;75.91
46534;BME280;32260;52.008;4.752;2024-02-04T08:38:22;102300.44;;;12.30;75.54
46534;BME280;32260;52.008;4.752;2024-02-04T08:40:48;102301.28;;;12.36;75.46
46534;BME280;32260;52.008;4.752;2024-02-04T08:43:15;102301.31;;;12.33;75.66
46534;BME280;32260;52.008;4.752;2024-02-04T08:45:42;102287.13;;;12.37;76.05
46534;BME280;32260;52.008;4.752;2024-02-04T08:48:08;102280.09;;;12.20;76.00
46534;BME280;32260;52.008;4.752;2024-02-04T08:50:34;102286.25;;;12.28;75.55
46534;BME280;32260;52.008;4.752;2024-02-04T08:53:00;102288.03;;;12.33;75.85
46534;BME280;32260;52.008;4.752;2024-02-04T08:55:26;102295.06;;;12.40;75.21
46534;BME280;32260;52.008;4.752;2024-02-04T08:57:53;102287.91;;;12.54;74.98
46534;BME280;32260;52.008;4.752;2024-02-04T09:00:19;102292.44;;;12.37;75.49
46534;BME280;32260;52.008;4.752;2024-02-04T09:02:46;102294.19;;;12.44;75.61
46534;BME280;32260;52.008;4.752;2024-02-04T09:05:12;102293.31;;;12.36;75.46
46534;BME280;32260;52.008;4.752;2024-02-04T09:07:38;102295.06;;;12.48;75.22
46534;BME280;32260;52.008;4.752;2024-02-04T09:10:05;102292.41;;;12.44;75.19
46534;BME280;32260;52.008;4.752;2024-02-04T09:12:33;102299.50;;;12.49;75.50
46534;BME280;32260;52.008;4.752;2024-02-04T09:14:59;102298.59;;;12.48;74.86
46534;BME280;32260;52.008;4.752;2024-02-04T09:17:25;102309.22;;;12.51;74.54
46534;BME280;32260;52.008;4.752;2024-02-04T09:19:52;102297.59;;;12.65;74.39
46534;BME280;32260;52.008;4.752;2024-02-04T09:22:19;102298.53;;;12.60;74.48
46534;BME280;32260;52.008;4.752;2024-02-04T09:24:45;102298.50;;;12.67;74.04
46534;BME280;32260;52.008;4.752;2024-02-04T09:27:11;102291.38;;;12.70;74.30
46534;BME280;32260;52.008;4.752;2024-02-04T09:29:37;102292.28;;;12.65;73.91
46534;BME280;32260;52.008;4.752;2024-02-04T09:32:04;102312.75;;;12.55;74.41
46534;BME280;32260;52.008;4.752;2024-02-04T09:34:30;102306.53;;;12.50;73.91
46534;BME280;32260;52.008;4.752;2024-02-04T09:36:56;102296.81;;;12.50;73.92
46534;BME280;32260;52.008;4.752;2024-02-04T09:39:22;102300.31;;;12.61;73.25
46534;BME280;32260;52.008;4.752;2024-02-04T09:41:48;102300.25;;;12.71;73.05
46534;BME280;32260;52.008;4.752;2024-02-04T09:44:15;102298.53;;;12.64;73.67
46534;BME280;32260;52.008;4.752;2024-02-04T09:46:42;102293.16;;;12.73;72.84
46534;BME280;32260;52.008;4.752;2024-02-04T09:49:09;102295.84;;;12.62;73.07
46534;BME280;32260;52.008;4.752;2024-02-04T09:51:36;102295.78;;;12.76;72.76
46534;BME280;32260;52.008;4.752;2024-02-04T09:54:04;102338.41;;;12.64;73.15
46534;BME280;32260;52.008;4.752;2024-02-04T09:56:33;102302.00;;;12.75;73.28
46534;BME280;32260;52.008;4.752;2024-02-04T09:59:02;102302.06;;;12.59;73.87
46534;BME280;32260;52.008;4.752;2024-02-04T10:01:28;102311.00;;;12.49;74.24
46534;BME280;32260;52.008;4.752;2024-02-04T10:03:54;102304.75;;;12.56;74.12
46534;BME280;32260;52.008;4.752;2024-02-04T10:06:20;102305.66;;;12.55;75.04
46534;BME280;32260;52.008;4.752;2024-02-04T10:08:47;102301.25;;;12.43;75.80
46534;BME280;32260;52.008;4.752;2024-02-04T10:11:13;102305.75;;;12.34;76.74
46534;BME280;32260;52.008;4.752;2024-02-04T10:13:44;102312.81;;;12.35;76.41
46534;BME280;32260;52.008;4.752;2024-02-04T10:16:12;102296.88;;;12.35;76.91
46534;BME280;32260;52.008;4.752;2024-02-04T10:18:43;102298.63;;;12.36;76.78
46534;BME280;32260;52.008;4.752;2024-02-04T10:21:24;102294.19;;;12.39;76.80
46534;BME280;32260;52.008;4.752;2024-02-04T10:23:51;102300.34;;;12.49;75.92
46534;BME280;32260;52.008;4.752;2024-02-04T10:26:18;102297.75;;;12.35;77.32
46534;BME280;32260;52.008;4.752;2024-02-04T10:28:46;102318.13;;;12.39;76.91
46534;BME280;32260;52.008;4.752;2024-02-04T10:31:13;102314.56;;;12.45;77.44
46534;BME280;32260;52.008;4.752;2024-02-04T10:33:39;102302.13;;;12.47;77.40
46534;BME280;32260;52.008;4.752;2024-02-04T10:36:06;102312.84;;;12.32;77.29
46534;BME280;32260;52.008;4.752;2024-02-04T10:38:33;102321.63;;;12.48;77.16
46534;BME280;32260;52.008;4.752;2024-02-04T10:41:01;102314.56;;;12.42;77.62
46534;BME280;32260;52.008;4.752;2024-02-04T10:43:32;102294.19;;;12.44;77.75
46534;BME280;32260;52.008;4.752;2024-02-04T10:46:08;102280.00;;;12.43;77.51
46534;BME280;32260;52.008;4.752;2024-02-04T10:48:37;102312.81;;;12.38;77.40
46534;BME280;32260;52.008;4.752;2024-02-04T10:51:11;102307.41;;;12.56;77.10
46534;BME280;32260;52.008;4.752;2024-02-04T10:53:40;102299.47;;;12.52;77.11
46534;BME280;32260;52.008;4.752;2024-02-04T10:56:07;102292.41;;;12.40;77.13
46534;BME280;32260;52.008;4.752;2024-02-04T10:58:38;102282.56;;;12.60;76.47
46534;BME280;32260;52.008;4.752;2024-02-04T11:01:05;102291.50;;;12.47;76.97
46534;BME280;32260;52.008;4.752;2024-02-04T11:03:33;102280.88;;;12.47;77.18
46534;BME280;32260;52.008;4.752;2024-02-04T11:05:59;102275.50;;;12.58;76.17
46534;BME280;32260;52.008;4.752;2024-02-04T11:08:26;102275.53;;;12.52;76.80
46534;BME280;32260;52.008;4.752;2024-02-04T11:10:52;102267.56;;;12.52;76.80
46534;BME280;32260;52.008;4.752;2024-02-04T11:13:20;102272.88;;;12.47;76.84
46534;BME280;32260;52.008;4.752;2024-02-04T11:15:48;102289.66;;;12.63;76.66
46534;BME280;32260;52.008;4.752;2024-02-04T11:26:48;102283.34;;;12.79;75.71
46534;BME280;32260;52.008;4.752;2024-02-04T11:29:14;102267.41;;;12.81;75.19
46534;BME280;32260;52.008;4.752;2024-02-04T11:31:41;102274.47;;;12.82;75.26
46534;BME280;32260;52.008;4.752;2024-02-04T11:34:08;102273.56;;;12.83;75.36
46534;BME280;32260;52.008;4.752;2024-02-04T11:36:41;102273.53;;;12.89;74.67
46534;BME280;32260;52.008;4.752;2024-02-04T11:39:13;102262.13;;;12.70;75.28
46534;BME280;32260;52.008;4.752;2024-02-04T11:41:48;102270.09;;;12.75;74.85
46534;BME280;32260;52.008;4.752;2024-02-04T11:44:29;102270.03;;;12.84;74.42
46534;BME280;32260;52.008;4.752;2024-02-04T11:46:56;102273.50;;;12.95;74.43
46534;BME280;32260;52.008;4.752;2024-02-04T11:49:25;102250.50;;;12.82;74.28
46534;BME280;32260;52.008;4.752;2024-02-04T11:51:52;102262.81;;;12.97;73.87
46534;BME280;32260;52.008;4.752;2024-02-04T11:54:19;102255.75;;;12.98;74.02
46534;BME280;32260;52.008;4.752;2024-02-04T11:56:48;102239.78;;;12.98;73.63
46534;BME280;32260;52.008;4.752;2024-02-04T11:59:20;102247.84;;;12.90;73.76
46534;BME280;32260;52.008;4.752;2024-02-04T12:01:48;102250.38;;;13.04;73.31
46534;BME280;32260;52.008;4.752;2024-02-04T12:04:16;102245.06;;;13.01;73.30
46534;BME280;32260;52.008;4.752;2024-02-04T12:06:43;102248.56;;;13.09;72.82
46534;BME280;32260;52.008;4.752;2024-02-04T12:09:10;102265.41;;;13.08;73.11
46534;BME280;32260;52.008;4.752;2024-02-04T12:11:37;102236.97;;;13.16;72.32
46534;BME280;32260;52.008;4.752;2024-02-04T12:14:05;102247.66;;;13.11;72.73
46534;BME280;32260;52.008;4.752;2024-02-04T12:16:33;102227.31;;;13.03;72.58
46534;BME280;32260;52.008;4.752;2024-02-04T12:19:02;102228.13;;;13.14;72.56
46534;BME280;32260;52.008;4.752;2024-02-04T12:21:30;102227.19;;;13.18;72.30
46534;BME280;32260;52.008;4.752;2024-02-04T12:23:58;102232.56;;;13.15;72.11
46534;BME280;32260;52.008;4.752;2024-02-04T12:26:25;102225.66;;;12.89;72.41
46534;BME280;32260;52.008;4.752;2024-02-04T12:28:52;102243.38;;;12.90;72.55
46534;BME280;32260;52.008;4.752;2024-02-04T12:31:21;102231.84;;;12.88;72.56
46534;BME280;32260;52.008;4.752;2024-02-04T12:33:55;102226.50;;;12.96;72.75
46534;BME280;32260;52.008;4.752;2024-02-04T12:36:25;102222.09;;;12.93;72.84
46534;BME280;32260;52.008;4.752;2024-02-04T12:38:53;102252.16;;;13.05;73.08
46534;BME280;32260;52.008;4.752;2024-02-04T12:41:21;102236.25;;;12.99;72.48
46534;BME280;32260;52.008;4.752;2024-02-04T12:43:54;102237.88;;;13.12;72.68
46534;BME280;32260;52.008;4.752;2024-02-04T12:46:21;102232.56;;;13.14;72.41
46534;BME280;32260;52.008;4.752;2024-02-04T12:48:52;102252.09;;;13.09;72.15
46534;BME280;32260;52.008;4.752;2024-02-04T12:51:34;102248.66;;;12.97;72.94
46534;BME280;32260;52.008;4.752;2024-02-04T12:59:36;102228.19;;;13.06;72.67
46534;BME280;32260;52.008;4.752;2024-02-04T13:02:05;102213.09;;;13.07;72.38
46534;BME280;32260;52.008;4.752;2024-02-04T13:04:36;102218.41;;;13.10;72.48
46534;BME280;32260;52.008;4.752;2024-02-04T13:07:07;102212.97;;;13.22;72.13
46534;BME280;32260;52.008;4.752;2024-02-04T13:09:35;102213.03;;;13.13;71.99